Aviation Digital Data Service (ADDS)

Output produced by METARs form (2001 UTC 09 December 2018)
found at http://www.aviationweather.gov/metar/data/
 
METAR text: DIAP 091930Z 25004KT 8000 FEW012 29/25 Q1013 NOSIG
Conditions at: DIAP (ABIDJAN/PORT BOU, CI) observed 1930 UTC 09 December 2018
Temperature: 29.0°C (84°F)
Dewpoint: 25.0°C (77°F) [RH = 79%]
Pressure (altimeter): 29.91 inches Hg (1013.0 mb)
Winds: from the WSW (250 degrees) at 5 MPH (4 knots; 2.1 m/s)
Visibility: 5 miles ( 8 km)
Ceiling: at least 12,000 feet AGL
Clouds: few clouds at 1200 feet AGL
Weather: no significant weather observed at this time

METAR text: DIAP 091900Z 24005KT 8000 FEW012 29/25 Q1013 NOSIG
Conditions at: DIAP (ABIDJAN/PORT BOU, CI) observed 1900 UTC 09 December 2018
Temperature: 29.0°C (84°F)
Dewpoint: 25.0°C (77°F) [RH = 79%]
Pressure (altimeter): 29.91 inches Hg (1013.0 mb)
Winds: from the WSW (240 degrees) at 6 MPH (5 knots; 2.6 m/s)
Visibility: 5 miles ( 8 km)
Ceiling: at least 12,000 feet AGL
Clouds: few clouds at 1200 feet AGL
Weather: no significant weather observed at this time

METAR text: DIAP 091830Z 24007KT 7000 FEW012 30/25 Q1012 NOSIG
Conditions at: DIAP (ABIDJAN/PORT BOU, CI) observed 1830 UTC 09 December 2018
Temperature: 30.0°C (86°F)
Dewpoint: 25.0°C (77°F) [RH = 75%]
Pressure (altimeter): 29.88 inches Hg (1012.0 mb)
Winds: from the WSW (240 degrees) at 8 MPH (7 knots; 3.6 m/s)
Visibility: 4 miles ( 7 km)
Ceiling: at least 12,000 feet AGL
Clouds: few clouds at 1200 feet AGL
Weather: no significant weather observed at this time

METAR text: DIAP 091800Z 23008KT 8000 FEW012 30/25 Q1012 NOSIG
Conditions at: DIAP (ABIDJAN/PORT BOU, CI) observed 1800 UTC 09 December 2018
Temperature: 30.0°C (86°F)
Dewpoint: 25.0°C (77°F) [RH = 75%]
Pressure (altimeter): 29.88 inches Hg (1012.0 mb)
Winds: from the SW (230 degrees) at 9 MPH (8 knots; 4.1 m/s)
Visibility: 5 miles ( 8 km)
Ceiling: at least 12,000 feet AGL
Clouds: few clouds at 1200 feet AGL
Weather: no significant weather observed at this time

METAR text: DIAP 091730Z 23009KT 8000 FEW012 30/25 Q1012 NOSIG
Conditions at: DIAP (ABIDJAN/PORT BOU, CI) observed 1730 UTC 09 December 2018
Temperature: 30.0°C (86°F)
Dewpoint: 25.0°C (77°F) [RH = 75%]
Pressure (altimeter): 29.88 inches Hg (1012.0 mb)
Winds: from the SW (230 degrees) at 10 MPH (9 knots; 4.6 m/s)
Visibility: 5 miles ( 8 km)
Ceiling: at least 12,000 feet AGL
Clouds: few clouds at 1200 feet AGL
Weather: no significant weather observed at this time

METAR text: DIAP 091700Z 23009KT 8000 FEW012 30/25 Q1011 NOSIG
Conditions at: DIAP (ABIDJAN/PORT BOU, CI) observed 1700 UTC 09 December 2018
Temperature: 30.0°C (86°F)
Dewpoint: 25.0°C (77°F) [RH = 75%]
Pressure (altimeter): 29.85 inches Hg (1011.0 mb)
Winds: from the SW (230 degrees) at 10 MPH (9 knots; 4.6 m/s)
Visibility: 5 miles ( 8 km)
Ceiling: at least 12,000 feet AGL
Clouds: few clouds at 1200 feet AGL
Weather: no significant weather observed at this time

METAR text: DIAP 091630Z 23010KT 8000 FEW012 31/25 Q1011 NOSIG
Conditions at: DIAP (ABIDJAN/PORT BOU, CI) observed 1630 UTC 09 December 2018
Temperature: 31.0°C (88°F)
Dewpoint: 25.0°C (77°F) [RH = 71%]
Pressure (altimeter): 29.85 inches Hg (1011.0 mb)
Winds: from the SW (230 degrees) at 12 MPH (10 knots; 5.1 m/s)
Visibility: 5 miles ( 8 km)
Ceiling: at least 12,000 feet AGL
Clouds: few clouds at 1200 feet AGL
Weather: no significant weather observed at this time

METAR text: DIAP 091600Z 22011KT 8000 FEW012 31/25 Q1011 NOSIG
Conditions at: DIAP (ABIDJAN/PORT BOU, CI) observed 1600 UTC 09 December 2018
Temperature: 31.0°C (88°F)
Dewpoint: 25.0°C (77°F) [RH = 71%]
Pressure (altimeter): 29.85 inches Hg (1011.0 mb)
Winds: from the SW (220 degrees) at 13 MPH (11 knots; 5.7 m/s)
Visibility: 5 miles ( 8 km)
Ceiling: at least 12,000 feet AGL
Clouds: few clouds at 1200 feet AGL
Weather: no significant weather observed at this time

METAR text: DIAP 091530Z 23010KT 8000 FEW012 31/26 Q1011 NOSIG
Conditions at: DIAP (ABIDJAN/PORT BOU, CI) observed 1530 UTC 09 December 2018
Temperature: 31.0°C (88°F)
Dewpoint: 26.0°C (79°F) [RH = 75%]
Pressure (altimeter): 29.85 inches Hg (1011.0 mb)
Winds: from the SW (230 degrees) at 12 MPH (10 knots; 5.1 m/s)
Visibility: 5 miles ( 8 km)
Ceiling: at least 12,000 feet AGL
Clouds: few clouds at 1200 feet AGL
Weather: no significant weather observed at this time

METAR text: DIAP 091500Z 22009KT 190V250 8000 FEW012 31/25 Q1011 NOSIG
Conditions at: DIAP (ABIDJAN/PORT BOU, CI) observed 1500 UTC 09 December 2018
Temperature: 31.0°C (88°F)
Dewpoint: 25.0°C (77°F) [RH = 71%]
Pressure (altimeter): 29.85 inches Hg (1011.0 mb)
Winds: from the SW (220 degrees) at 10 MPH (9 knots; 4.6 m/s)
Visibility: 5 miles ( 8 km)
Ceiling: at least 12,000 feet AGL
Clouds: few clouds at 1200 feet AGL
Weather: no significant weather observed at this time

METAR text: DIAP 091430Z 23010KT 7000 FEW015 31/25 Q1011 NOSIG
Conditions at: DIAP (ABIDJAN/PORT BOU, CI) observed 1430 UTC 09 December 2018
Temperature: 31.0°C (88°F)
Dewpoint: 25.0°C (77°F) [RH = 71%]
Pressure (altimeter): 29.85 inches Hg (1011.0 mb)
Winds: from the SW (230 degrees) at 12 MPH (10 knots; 5.1 m/s)
Visibility: 4 miles ( 7 km)
Ceiling: at least 12,000 feet AGL
Clouds: few clouds at 1500 feet AGL
Weather: no significant weather observed at this time

METAR text: DIAP 091400Z 22010KT 200V260 8000 FEW015 31/24 Q1011 NOSIG
Conditions at: DIAP (ABIDJAN/PORT BOU, CI) observed 1400 UTC 09 December 2018
Temperature: 31.0°C (88°F)
Dewpoint: 24.0°C (75°F) [RH = 66%]
Pressure (altimeter): 29.85 inches Hg (1011.0 mb)
Winds: from the SW (220 degrees) at 12 MPH (10 knots; 5.1 m/s)
Visibility: 5 miles ( 8 km)
Ceiling: at least 12,000 feet AGL
Clouds: few clouds at 1500 feet AGL
Weather: no significant weather observed at this time

METAR text: DIAP 091330Z 22009KT 8000 FEW015 32/25 Q1012 NOSIG
Conditions at: DIAP (ABIDJAN/PORT BOU, CI) observed 1330 UTC 09 December 2018
Temperature: 32.0°C (90°F)
Dewpoint: 25.0°C (77°F) [RH = 67%]
Pressure (altimeter): 29.88 inches Hg (1012.0 mb)
Winds: from the SW (220 degrees) at 10 MPH (9 knots; 4.6 m/s)
Visibility: 5 miles ( 8 km)
Ceiling: at least 12,000 feet AGL
Clouds: few clouds at 1500 feet AGL
Weather: no significant weather observed at this time

METAR text: DIAP 091300Z 21008KT 180V240 8000 FEW015 32/24 Q1012 NOSIG
Conditions at: DIAP (ABIDJAN/PORT BOU, CI) observed 1300 UTC 09 December 2018
Temperature: 32.0°C (90°F)
Dewpoint: 24.0°C (75°F) [RH = 63%]
Pressure (altimeter): 29.88 inches Hg (1012.0 mb)
Winds: from the SSW (210 degrees) at 9 MPH (8 knots; 4.1 m/s)
Visibility: 5 miles ( 8 km)
Ceiling: at least 12,000 feet AGL
Clouds: few clouds at 1500 feet AGL
Weather: no significant weather observed at this time

METAR text: DIAP 091230Z 22007KT 180V260 8000 FEW015 32/24 Q1012 NOSIG
Conditions at: DIAP (ABIDJAN/PORT BOU, CI) observed 1230 UTC 09 December 2018
Temperature: 32.0°C (90°F)
Dewpoint: 24.0°C (75°F) [RH = 63%]
Pressure (altimeter): 29.88 inches Hg (1012.0 mb)
Winds: from the SW (220 degrees) at 8 MPH (7 knots; 3.6 m/s)
Visibility: 5 miles ( 8 km)
Ceiling: at least 12,000 feet AGL
Clouds: few clouds at 1500 feet AGL
Weather: no significant weather observed at this time

METAR text: DIAP 091200Z 22008KT 190V250 8000 FEW015 32/24 Q1013 NOSIG
Conditions at: DIAP (ABIDJAN/PORT BOU, CI) observed 1200 UTC 09 December 2018
Temperature: 32.0°C (90°F)
Dewpoint: 24.0°C (75°F) [RH = 63%]
Pressure (altimeter): 29.91 inches Hg (1013.0 mb)
Winds: from the SW (220 degrees) at 9 MPH (8 knots; 4.1 m/s)
Visibility: 5 miles ( 8 km)
Ceiling: at least 12,000 feet AGL
Clouds: few clouds at 1500 feet AGL
Weather: no significant weather observed at this time

METAR text: DIAP 091130Z 22007KT 8000 FEW015 31/24 Q1013 NOSIG
Conditions at: DIAP (ABIDJAN/PORT BOU, CI) observed 1130 UTC 09 December 2018
Temperature: 31.0°C (88°F)
Dewpoint: 24.0°C (75°F) [RH = 66%]
Pressure (altimeter): 29.91 inches Hg (1013.0 mb)
Winds: from the SW (220 degrees) at 8 MPH (7 knots; 3.6 m/s)
Visibility: 5 miles ( 8 km)
Ceiling: at least 12,000 feet AGL
Clouds: few clouds at 1500 feet AGL
Weather: no significant weather observed at this time

METAR text: DIAP 091100Z 22007KT 190V250 7000 FEW015 31/24 Q1013 NOSIG
Conditions at: DIAP (ABIDJAN/PORT BOU, CI) observed 1100 UTC 09 December 2018
Temperature: 31.0°C (88°F)
Dewpoint: 24.0°C (75°F) [RH = 66%]
Pressure (altimeter): 29.91 inches Hg (1013.0 mb)
Winds: from the SW (220 degrees) at 8 MPH (7 knots; 3.6 m/s)
Visibility: 4 miles ( 7 km)
Ceiling: at least 12,000 feet AGL
Clouds: few clouds at 1500 feet AGL
Weather: no significant weather observed at this time

METAR text: DIAP 091030Z 24004KT 200V320 7000 FEW015 31/24 Q1014 NOSIG
Conditions at: DIAP (ABIDJAN/PORT BOU, CI) observed 1030 UTC 09 December 2018
Temperature: 31.0°C (88°F)
Dewpoint: 24.0°C (75°F) [RH = 66%]
Pressure (altimeter): 29.94 inches Hg (1014.0 mb)
Winds: from the WSW (240 degrees) at 5 MPH (4 knots; 2.1 m/s)
Visibility: 4 miles ( 7 km)
Ceiling: at least 12,000 feet AGL
Clouds: few clouds at 1500 feet AGL
Weather: no significant weather observed at this time

METAR text: DIAP 091000Z 24004KT 210V280 7000 SCT015 31/24 Q1014 NOSIG
Conditions at: DIAP (ABIDJAN/PORT BOU, CI) observed 1000 UTC 09 December 2018
Temperature: 31.0°C (88°F)
Dewpoint: 24.0°C (75°F) [RH = 66%]
Pressure (altimeter): 29.94 inches Hg (1014.0 mb)
Winds: from the WSW (240 degrees) at 5 MPH (4 knots; 2.1 m/s)
Visibility: 4 miles ( 7 km)
Ceiling: at least 12,000 feet AGL
Clouds: scattered clouds at 1500 feet AGL
Weather: no significant weather observed at this time

METAR text: DIAP 090930Z 28004KT 240V350 7000 FEW015 30/25 Q1014 NOSIG
Conditions at: DIAP (ABIDJAN/PORT BOU, CI) observed 0930 UTC 09 December 2018
Temperature: 30.0°C (86°F)
Dewpoint: 25.0°C (77°F) [RH = 75%]
Pressure (altimeter): 29.94 inches Hg (1014.0 mb)
Winds: from the W (280 degrees) at 5 MPH (4 knots; 2.1 m/s)
Visibility: 4 miles ( 7 km)
Ceiling: at least 12,000 feet AGL
Clouds: few clouds at 1500 feet AGL
Weather: no significant weather observed at this time

METAR text: DIAP 090900Z 34003KT 310V010 7000 FEW013 29/26 Q1014 NOSIG
Conditions at: DIAP (ABIDJAN/PORT BOU, CI) observed 0900 UTC 09 December 2018
Temperature: 29.0°C (84°F)
Dewpoint: 26.0°C (79°F) [RH = 84%]
Pressure (altimeter): 29.94 inches Hg (1014.0 mb)
Winds: from the NNW (340 degrees) at 3 MPH (3 knots; 1.5 m/s)
Visibility: 4 miles ( 7 km)
Ceiling: at least 12,000 feet AGL
Clouds: few clouds at 1300 feet AGL
Weather: no significant weather observed at this time

METAR text: DIAP 090830Z 33004KT 310V010 6000 FEW013 29/26 Q1014 NOSIG
Conditions at: DIAP (ABIDJAN/PORT BOU, CI) observed 0830 UTC 09 December 2018
Temperature: 29.0°C (84°F)
Dewpoint: 26.0°C (79°F) [RH = 84%]
Pressure (altimeter): 29.94 inches Hg (1014.0 mb)
Winds: from the NNW (330 degrees) at 5 MPH (4 knots; 2.1 m/s)
Visibility: 4 miles ( 6 km)
Ceiling: at least 12,000 feet AGL
Clouds: few clouds at 1300 feet AGL
Weather: no significant weather observed at this time

METAR text: DIAP 090800Z 33004KT 6000 FEW013 28/26 Q1014 NOSIG
Conditions at: DIAP (ABIDJAN/PORT BOU, CI) observed 0800 UTC 09 December 2018
Temperature: 28.0°C (82°F)
Dewpoint: 26.0°C (79°F) [RH = 89%]
Pressure (altimeter): 29.94 inches Hg (1014.0 mb)
Winds: from the NNW (330 degrees) at 5 MPH (4 knots; 2.1 m/s)
Visibility: 4 miles ( 6 km)
Ceiling: at least 12,000 feet AGL
Clouds: few clouds at 1300 feet AGL
Weather: no significant weather observed at this time

METAR text: DIAP 090730Z 35004KT 6000 FEW020 27/26 Q1013 NOSIG
Conditions at: DIAP (ABIDJAN/PORT BOU, CI) observed 0730 UTC 09 December 2018
Temperature: 27.0°C (81°F)
Dewpoint: 26.0°C (79°F) [RH = 94%]
Pressure (altimeter): 29.91 inches Hg (1013.0 mb)
Winds: from the N (350 degrees) at 5 MPH (4 knots; 2.1 m/s)
Visibility: 4 miles ( 6 km)
Ceiling: at least 12,000 feet AGL
Clouds: few clouds at 2000 feet AGL
Weather: no significant weather observed at this time

METAR text: DIAP 090700Z 35003KT 6000 FEW020 26/25 Q1013 TEMPO 3000 BR
Conditions at: DIAP (ABIDJAN/PORT BOU, CI) observed 0700 UTC 09 December 2018
Temperature: 26.0°C (79°F)
Dewpoint: 25.0°C (77°F) [RH = 94%]
Pressure (altimeter): 29.91 inches Hg (1013.0 mb)
Winds: from the N (350 degrees) at 3 MPH (3 knots; 1.5 m/s)
Visibility: 4 miles ( 6 km)
Ceiling: at least 12,000 feet AGL
Clouds: few clouds at 2000 feet AGL
Weather: no significant weather observed at this time

METAR text: DIAP 090630Z 36003KT 6000 FEW020 26/25 Q1013 TEMPO 3000 BR
Conditions at: DIAP (ABIDJAN/PORT BOU, CI) observed 0630 UTC 09 December 2018
Temperature: 26.0°C (79°F)
Dewpoint: 25.0°C (77°F) [RH = 94%]
Pressure (altimeter): 29.91 inches Hg (1013.0 mb)
Winds: from the N (360 degrees) at 3 MPH (3 knots; 1.5 m/s)
Visibility: 4 miles ( 6 km)
Ceiling: at least 12,000 feet AGL
Clouds: few clouds at 2000 feet AGL
Weather: no significant weather observed at this time

METAR text: DIAP 090600Z 03001KT 7000 FEW020 26/25 Q1012 TEMPO 3000 BR
Conditions at: DIAP (ABIDJAN/PORT BOU, CI) observed 0600 UTC 09 December 2018
Temperature: 26.0°C (79°F)
Dewpoint: 25.0°C (77°F) [RH = 94%]
Pressure (altimeter): 29.88 inches Hg (1012.0 mb)
Winds: from the NNE (30 degrees) at 1 MPH (1 knots; 0.5 m/s)
Visibility: 4 miles ( 7 km)
Ceiling: at least 12,000 feet AGL
Clouds: few clouds at 2000 feet AGL
Weather: no significant weather observed at this time

METAR text: DIAP 090530Z VRB01KT 7000 FEW020 26/25 Q1012 TEMPO 3000 BR
Conditions at: DIAP (ABIDJAN/PORT BOU, CI) observed 0530 UTC 09 December 2018
Temperature: 26.0°C (79°F)
Dewpoint: 25.0°C (77°F) [RH = 94%]
Pressure (altimeter): 29.88 inches Hg (1012.0 mb)
Winds: variable direction winds at 1 MPH (1 knots; 0.5 m/s)
Visibility: 4 miles ( 7 km)
Ceiling: at least 12,000 feet AGL
Clouds: few clouds at 2000 feet AGL
Weather: no significant weather observed at this time

METAR text: DIAP 090500Z VRB01KT 7000 FEW020 26/25 Q1012 TEMPO 3000 BR
Conditions at: DIAP (ABIDJAN/PORT BOU, CI) observed 0500 UTC 09 December 2018
Temperature: 26.0°C (79°F)
Dewpoint: 25.0°C (77°F) [RH = 94%]
Pressure (altimeter): 29.88 inches Hg (1012.0 mb)
Winds: variable direction winds at 1 MPH (1 knots; 0.5 m/s)
Visibility: 4 miles ( 7 km)
Ceiling: at least 12,000 feet AGL
Clouds: few clouds at 2000 feet AGL
Weather: no significant weather observed at this time

METAR text: DIAP 090430Z VRB01KT 8000 FEW020 26/25 Q1012 NOSIG
Conditions at: DIAP (ABIDJAN/PORT BOU, CI) observed 0430 UTC 09 December 2018
Temperature: 26.0°C (79°F)
Dewpoint: 25.0°C (77°F) [RH = 94%]
Pressure (altimeter): 29.88 inches Hg (1012.0 mb)
Winds: variable direction winds at 1 MPH (1 knots; 0.5 m/s)
Visibility: 5 miles ( 8 km)
Ceiling: at least 12,000 feet AGL
Clouds: few clouds at 2000 feet AGL
Weather: no significant weather observed at this time

METAR text: DIAP 090400Z 32001KT 8000 FEW020 26/25 Q1011 NOSIG
Conditions at: DIAP (ABIDJAN/PORT BOU, CI) observed 0400 UTC 09 December 2018
Temperature: 26.0°C (79°F)
Dewpoint: 25.0°C (77°F) [RH = 94%]
Pressure (altimeter): 29.85 inches Hg (1011.0 mb)
Winds: from the NW (320 degrees) at 1 MPH (1 knots; 0.5 m/s)
Visibility: 5 miles ( 8 km)
Ceiling: at least 12,000 feet AGL
Clouds: few clouds at 2000 feet AGL
Weather: no significant weather observed at this time

METAR text: DIAP 090330Z VRB02KT 8000 FEW020 27/25 Q1011 NOSIG
Conditions at: DIAP (ABIDJAN/PORT BOU, CI) observed 0330 UTC 09 December 2018
Temperature: 27.0°C (81°F)
Dewpoint: 25.0°C (77°F) [RH = 89%]
Pressure (altimeter): 29.85 inches Hg (1011.0 mb)
Winds: variable direction winds at 2 MPH (2 knots; 1.0 m/s)
Visibility: 5 miles ( 8 km)
Ceiling: at least 12,000 feet AGL
Clouds: few clouds at 2000 feet AGL
Weather: no significant weather observed at this time

METAR text: DIAP 090300Z 26002KT 8000 FEW020 28/25 Q1011 NOSIG
Conditions at: DIAP (ABIDJAN/PORT BOU, CI) observed 0300 UTC 09 December 2018
Temperature: 28.0°C (82°F)
Dewpoint: 25.0°C (77°F) [RH = 84%]
Pressure (altimeter): 29.85 inches Hg (1011.0 mb)
Winds: from the W (260 degrees) at 2 MPH (2 knots; 1.0 m/s)
Visibility: 5 miles ( 8 km)
Ceiling: at least 12,000 feet AGL
Clouds: few clouds at 2000 feet AGL
Weather: no significant weather observed at this time

METAR text: DIAP 090230Z 27003KT 8000 FEW020 27/25 Q1012 NOSIG
Conditions at: DIAP (ABIDJAN/PORT BOU, CI) observed 0230 UTC 09 December 2018
Temperature: 27.0°C (81°F)
Dewpoint: 25.0°C (77°F) [RH = 89%]
Pressure (altimeter): 29.88 inches Hg (1012.0 mb)
Winds: from the W (270 degrees) at 3 MPH (3 knots; 1.5 m/s)
Visibility: 5 miles ( 8 km)
Ceiling: at least 12,000 feet AGL
Clouds: few clouds at 2000 feet AGL
Weather: no significant weather observed at this time

METAR text: DIAP 090200Z 25003KT 8000 FEW020 28/25 Q1012 NOSIG
Conditions at: DIAP (ABIDJAN/PORT BOU, CI) observed 0200 UTC 09 December 2018
Temperature: 28.0°C (82°F)
Dewpoint: 25.0°C (77°F) [RH = 84%]
Pressure (altimeter): 29.88 inches Hg (1012.0 mb)
Winds: from the WSW (250 degrees) at 3 MPH (3 knots; 1.5 m/s)
Visibility: 5 miles ( 8 km)
Ceiling: at least 12,000 feet AGL
Clouds: few clouds at 2000 feet AGL
Weather: no significant weather observed at this time

METAR text: DIAP 090130Z 25003KT 8000 FEW020 27/25 Q1012 NOSIG
Conditions at: DIAP (ABIDJAN/PORT BOU, CI) observed 0130 UTC 09 December 2018
Temperature: 27.0°C (81°F)
Dewpoint: 25.0°C (77°F) [RH = 89%]
Pressure (altimeter): 29.88 inches Hg (1012.0 mb)
Winds: from the WSW (250 degrees) at 3 MPH (3 knots; 1.5 m/s)
Visibility: 5 miles ( 8 km)
Ceiling: at least 12,000 feet AGL
Clouds: few clouds at 2000 feet AGL
Weather: no significant weather observed at this time

METAR text: DIAP 090100Z 24003KT 8000 FEW020 28/25 Q1013 NOSIG
Conditions at: DIAP (ABIDJAN/PORT BOU, CI) observed 0100 UTC 09 December 2018
Temperature: 28.0°C (82°F)
Dewpoint: 25.0°C (77°F) [RH = 84%]
Pressure (altimeter): 29.91 inches Hg (1013.0 mb)
Winds: from the WSW (240 degrees) at 3 MPH (3 knots; 1.5 m/s)
Visibility: 5 miles ( 8 km)
Ceiling: at least 12,000 feet AGL
Clouds: few clouds at 2000 feet AGL
Weather: no significant weather observed at this time

METAR text: DIAP 090030Z 26003KT 8000 FEW020 28/25 Q1013 NOSIG
Conditions at: DIAP (ABIDJAN/PORT BOU, CI) observed 0030 UTC 09 December 2018
Temperature: 28.0°C (82°F)
Dewpoint: 25.0°C (77°F) [RH = 84%]
Pressure (altimeter): 29.91 inches Hg (1013.0 mb)
Winds: from the W (260 degrees) at 3 MPH (3 knots; 1.5 m/s)
Visibility: 5 miles ( 8 km)
Ceiling: at least 12,000 feet AGL
Clouds: few clouds at 2000 feet AGL
Weather: no significant weather observed at this time

METAR text: DIAP 090000Z 26003KT 8000 FEW020 28/25 Q1013 NOSIG
Conditions at: DIAP (ABIDJAN/PORT BOU, CI) observed 0000 UTC 09 December 2018
Temperature: 28.0°C (82°F)
Dewpoint: 25.0°C (77°F) [RH = 84%]
Pressure (altimeter): 29.91 inches Hg (1013.0 mb)
Winds: from the W (260 degrees) at 3 MPH (3 knots; 1.5 m/s)
Visibility: 5 miles ( 8 km)
Ceiling: at least 12,000 feet AGL
Clouds: few clouds at 2000 feet AGL
Weather: no significant weather observed at this time

METAR text: DIAP 082330Z 25003KT 8000 FEW020 28/25 Q1013 NOSIG
Conditions at: DIAP (ABIDJAN/PORT BOU, CI) observed 2330 UTC 08 December 2018
Temperature: 28.0°C (82°F)
Dewpoint: 25.0°C (77°F) [RH = 84%]
Pressure (altimeter): 29.91 inches Hg (1013.0 mb)
Winds: from the WSW (250 degrees) at 3 MPH (3 knots; 1.5 m/s)
Visibility: 5 miles ( 8 km)
Ceiling: at least 12,000 feet AGL
Clouds: few clouds at 2000 feet AGL
Weather: no significant weather observed at this time

METAR text: DIAP 082300Z 24004KT 200V260 8000 FEW020 28/25 Q1013 NOSIG
Conditions at: DIAP (ABIDJAN/PORT BOU, CI) observed 2300 UTC 08 December 2018
Temperature: 28.0°C (82°F)
Dewpoint: 25.0°C (77°F) [RH = 84%]
Pressure (altimeter): 29.91 inches Hg (1013.0 mb)
Winds: from the WSW (240 degrees) at 5 MPH (4 knots; 2.1 m/s)
Visibility: 5 miles ( 8 km)
Ceiling: at least 12,000 feet AGL
Clouds: few clouds at 2000 feet AGL
Weather: no significant weather observed at this time

METAR text: DIAP 082230Z 24004KT 8000 FEW020 28/25 Q1013 NOSIG
Conditions at: DIAP (ABIDJAN/PORT BOU, CI) observed 2230 UTC 08 December 2018
Temperature: 28.0°C (82°F)
Dewpoint: 25.0°C (77°F) [RH = 84%]
Pressure (altimeter): 29.91 inches Hg (1013.0 mb)
Winds: from the WSW (240 degrees) at 5 MPH (4 knots; 2.1 m/s)
Visibility: 5 miles ( 8 km)
Ceiling: at least 12,000 feet AGL
Clouds: few clouds at 2000 feet AGL
Weather: no significant weather observed at this time

METAR text: DIAP 082200Z 24003KT 8000 FEW012 28/25 Q1013 NOSIG
Conditions at: DIAP (ABIDJAN/PORT BOU, CI) observed 2200 UTC 08 December 2018
Temperature: 28.0°C (82°F)
Dewpoint: 25.0°C (77°F) [RH = 84%]
Pressure (altimeter): 29.91 inches Hg (1013.0 mb)
Winds: from the WSW (240 degrees) at 3 MPH (3 knots; 1.5 m/s)
Visibility: 5 miles ( 8 km)
Ceiling: at least 12,000 feet AGL
Clouds: few clouds at 1200 feet AGL
Weather: no significant weather observed at this time

METAR text: DIAP 082130Z 24004KT 8000 FEW012 29/25 Q1013 NOSIG
Conditions at: DIAP (ABIDJAN/PORT BOU, CI) observed 2130 UTC 08 December 2018
Temperature: 29.0°C (84°F)
Dewpoint: 25.0°C (77°F) [RH = 79%]
Pressure (altimeter): 29.91 inches Hg (1013.0 mb)
Winds: from the WSW (240 degrees) at 5 MPH (4 knots; 2.1 m/s)
Visibility: 5 miles ( 8 km)
Ceiling: at least 12,000 feet AGL
Clouds: few clouds at 1200 feet AGL
Weather: no significant weather observed at this time

METAR text: DIAP 082100Z 24004KT 210V270 8000 FEW012 29/25 Q1013 NOSIG
Conditions at: DIAP (ABIDJAN/PORT BOU, CI) observed 2100 UTC 08 December 2018
Temperature: 29.0°C (84°F)
Dewpoint: 25.0°C (77°F) [RH = 79%]
Pressure (altimeter): 29.91 inches Hg (1013.0 mb)
Winds: from the WSW (240 degrees) at 5 MPH (4 knots; 2.1 m/s)
Visibility: 5 miles ( 8 km)
Ceiling: at least 12,000 feet AGL
Clouds: few clouds at 1200 feet AGL
Weather: no significant weather observed at this time

METAR text: DIAP 082030Z 24004KT 200V270 8000 FEW012 29/25 Q1013 NOSIG
Conditions at: DIAP (ABIDJAN/PORT BOU, CI) observed 2030 UTC 08 December 2018
Temperature: 29.0°C (84°F)
Dewpoint: 25.0°C (77°F) [RH = 79%]
Pressure (altimeter): 29.91 inches Hg (1013.0 mb)
Winds: from the WSW (240 degrees) at 5 MPH (4 knots; 2.1 m/s)
Visibility: 5 miles ( 8 km)
Ceiling: at least 12,000 feet AGL
Clouds: few clouds at 1200 feet AGL
Weather: no significant weather observed at this time

METAR text: DIAP 082000Z 23005KT 210V270 8000 FEW012 29/25 Q1012 NOSIG
Conditions at: DIAP (ABIDJAN/PORT BOU, CI) observed 2000 UTC 08 December 2018
Temperature: 29.0°C (84°F)
Dewpoint: 25.0°C (77°F) [RH = 79%]
Pressure (altimeter): 29.88 inches Hg (1012.0 mb)
Winds: from the SW (230 degrees) at 6 MPH (5 knots; 2.6 m/s)
Visibility: 5 miles ( 8 km)
Ceiling: at least 12,000 feet AGL
Clouds: few clouds at 1200 feet AGL
Weather: no significant weather observed at this time

METAR text: DIAP 081930Z 24004KT 8000 FEW012 29/26 Q1012 NOSIG
Conditions at: DIAP (ABIDJAN/PORT BOU, CI) observed 1930 UTC 08 December 2018
Temperature: 29.0°C (84°F)
Dewpoint: 26.0°C (79°F) [RH = 84%]
Pressure (altimeter): 29.88 inches Hg (1012.0 mb)
Winds: from the WSW (240 degrees) at 5 MPH (4 knots; 2.1 m/s)
Visibility: 5 miles ( 8 km)
Ceiling: at least 12,000 feet AGL
Clouds: few clouds at 1200 feet AGL
Weather: no significant weather observed at this time

METAR text: DIAP 081900Z 24005KT 8000 FEW012 BKN033 29/26 Q1011 NOSIG
Conditions at: DIAP (ABIDJAN/PORT BOU, CI) observed 1900 UTC 08 December 2018
Temperature: 29.0°C (84°F)
Dewpoint: 26.0°C (79°F) [RH = 84%]
Pressure (altimeter): 29.85 inches Hg (1011.0 mb)
Winds: from the WSW (240 degrees) at 6 MPH (5 knots; 2.6 m/s)
Visibility: 5 miles ( 8 km)
Ceiling: 3300 feet AGL
Clouds: few clouds at 1200 feet AGL
broken clouds at 3300 feet AGL
Weather: no significant weather observed at this time

METAR text: DIAP 081830Z 24006KT 8000 FEW012 SCT034 29/25 Q1011 NOSIG
Conditions at: DIAP (ABIDJAN/PORT BOU, CI) observed 1830 UTC 08 December 2018
Temperature: 29.0°C (84°F)
Dewpoint: 25.0°C (77°F) [RH = 79%]
Pressure (altimeter): 29.85 inches Hg (1011.0 mb)
Winds: from the WSW (240 degrees) at 7 MPH (6 knots; 3.1 m/s)
Visibility: 5 miles ( 8 km)
Ceiling: at least 12,000 feet AGL
Clouds: few clouds at 1200 feet AGL
scattered clouds at 3400 feet AGL
Weather: no significant weather observed at this time

METAR text: DIAP 081800Z 22008KT 8000 FEW012 30/25 Q1010 NOSIG
Conditions at: DIAP (ABIDJAN/PORT BOU, CI) observed 1800 UTC 08 December 2018
Temperature: 30.0°C (86°F)
Dewpoint: 25.0°C (77°F) [RH = 75%]
Pressure (altimeter): 29.82 inches Hg (1010.0 mb)
Winds: from the SW (220 degrees) at 9 MPH (8 knots; 4.1 m/s)
Visibility: 5 miles ( 8 km)
Ceiling: at least 12,000 feet AGL
Clouds: few clouds at 1200 feet AGL
Weather: no significant weather observed at this time

METAR text: DIAP 081730Z 22008KT 190V250 8000 FEW012 30/25 Q1010 NOSIG
Conditions at: DIAP (ABIDJAN/PORT BOU, CI) observed 1730 UTC 08 December 2018
Temperature: 30.0°C (86°F)
Dewpoint: 25.0°C (77°F) [RH = 75%]
Pressure (altimeter): 29.82 inches Hg (1010.0 mb)
Winds: from the SW (220 degrees) at 9 MPH (8 knots; 4.1 m/s)
Visibility: 5 miles ( 8 km)
Ceiling: at least 12,000 feet AGL
Clouds: few clouds at 1200 feet AGL
Weather: no significant weather observed at this time

METAR text: DIAP 081700Z 22008KT 8000 FEW012 30/25 Q1010 NOSIG
Conditions at: DIAP (ABIDJAN/PORT BOU, CI) observed 1700 UTC 08 December 2018
Temperature: 30.0°C (86°F)
Dewpoint: 25.0°C (77°F) [RH = 75%]
Pressure (altimeter): 29.82 inches Hg (1010.0 mb)
Winds: from the SW (220 degrees) at 9 MPH (8 knots; 4.1 m/s)
Visibility: 5 miles ( 8 km)
Ceiling: at least 12,000 feet AGL
Clouds: few clouds at 1200 feet AGL
Weather: no significant weather observed at this time

METAR text: DIAP 081630Z 22008KT 8000 FEW012 30/25 Q1010 NOSIG
Conditions at: DIAP (ABIDJAN/PORT BOU, CI) observed 1630 UTC 08 December 2018
Temperature: 30.0°C (86°F)
Dewpoint: 25.0°C (77°F) [RH = 75%]
Pressure (altimeter): 29.82 inches Hg (1010.0 mb)
Winds: from the SW (220 degrees) at 9 MPH (8 knots; 4.1 m/s)
Visibility: 5 miles ( 8 km)
Ceiling: at least 12,000 feet AGL
Clouds: few clouds at 1200 feet AGL
Weather: no significant weather observed at this time

METAR text: DIAP 081600Z 22009KT 9000 FEW012 31/25 Q1010 NOSIG
Conditions at: DIAP (ABIDJAN/PORT BOU, CI) observed 1600 UTC 08 December 2018
Temperature: 31.0°C (88°F)
Dewpoint: 25.0°C (77°F) [RH = 71%]
Pressure (altimeter): 29.82 inches Hg (1010.0 mb)
Winds: from the SW (220 degrees) at 10 MPH (9 knots; 4.6 m/s)
Visibility: 6 miles ( 9 km)
Ceiling: at least 12,000 feet AGL
Clouds: few clouds at 1200 feet AGL
Weather: no significant weather observed at this time

METAR text: DIAP 081530Z 21009KT 9000 FEW012 31/24 Q1010 NOSIG
Conditions at: DIAP (ABIDJAN/PORT BOU, CI) observed 1530 UTC 08 December 2018
Temperature: 31.0°C (88°F)
Dewpoint: 24.0°C (75°F) [RH = 66%]
Pressure (altimeter): 29.82 inches Hg (1010.0 mb)
Winds: from the SSW (210 degrees) at 10 MPH (9 knots; 4.6 m/s)
Visibility: 6 miles ( 9 km)
Ceiling: at least 12,000 feet AGL
Clouds: few clouds at 1200 feet AGL
Weather: no significant weather observed at this time

METAR text: DIAP 081500Z 21008KT 8000 FEW012 31/24 Q1010 NOSIG
Conditions at: DIAP (ABIDJAN/PORT BOU, CI) observed 1500 UTC 08 December 2018
Temperature: 31.0°C (88°F)
Dewpoint: 24.0°C (75°F) [RH = 66%]
Pressure (altimeter): 29.82 inches Hg (1010.0 mb)
Winds: from the SSW (210 degrees) at 9 MPH (8 knots; 4.1 m/s)
Visibility: 5 miles ( 8 km)
Ceiling: at least 12,000 feet AGL
Clouds: few clouds at 1200 feet AGL
Weather: no significant weather observed at this time

METAR text: DIAP 081430Z 22008KT 8000 FEW012 31/25 Q1010 NOSIG
Conditions at: DIAP (ABIDJAN/PORT BOU, CI) observed 1430 UTC 08 December 2018
Temperature: 31.0°C (88°F)
Dewpoint: 25.0°C (77°F) [RH = 71%]
Pressure (altimeter): 29.82 inches Hg (1010.0 mb)
Winds: from the SW (220 degrees) at 9 MPH (8 knots; 4.1 m/s)
Visibility: 5 miles ( 8 km)
Ceiling: at least 12,000 feet AGL
Clouds: few clouds at 1200 feet AGL
Weather: no significant weather observed at this time

METAR text: DIAP 081400Z 23009KT 8000 FEW012 31/25 Q1011 NOSIG
Conditions at: DIAP (ABIDJAN/PORT BOU, CI) observed 1400 UTC 08 December 2018
Temperature: 31.0°C (88°F)
Dewpoint: 25.0°C (77°F) [RH = 71%]
Pressure (altimeter): 29.85 inches Hg (1011.0 mb)
Winds: from the SW (230 degrees) at 10 MPH (9 knots; 4.6 m/s)
Visibility: 5 miles ( 8 km)
Ceiling: at least 12,000 feet AGL
Clouds: few clouds at 1200 feet AGL
Weather: no significant weather observed at this time

METAR text: DIAP 081330Z 22008KT 8000 FEW012 32/25 Q1011 NOSIG
Conditions at: DIAP (ABIDJAN/PORT BOU, CI) observed 1330 UTC 08 December 2018
Temperature: 32.0°C (90°F)
Dewpoint: 25.0°C (77°F) [RH = 67%]
Pressure (altimeter): 29.85 inches Hg (1011.0 mb)
Winds: from the SW (220 degrees) at 9 MPH (8 knots; 4.1 m/s)
Visibility: 5 miles ( 8 km)
Ceiling: at least 12,000 feet AGL
Clouds: few clouds at 1200 feet AGL
Weather: no significant weather observed at this time

METAR text: DIAP 081300Z 23007KT 200V260 8000 SCT012 32/24 Q1011 NOSIG
Conditions at: DIAP (ABIDJAN/PORT BOU, CI) observed 1300 UTC 08 December 2018
Temperature: 32.0°C (90°F)
Dewpoint: 24.0°C (75°F) [RH = 63%]
Pressure (altimeter): 29.85 inches Hg (1011.0 mb)
Winds: from the SW (230 degrees) at 8 MPH (7 knots; 3.6 m/s)
Visibility: 5 miles ( 8 km)
Ceiling: at least 12,000 feet AGL
Clouds: scattered clouds at 1200 feet AGL
Weather: no significant weather observed at this time

METAR text: DIAP 081230Z 23007KT 8000 SCT012 31/25 Q1012 NOSIG
Conditions at: DIAP (ABIDJAN/PORT BOU, CI) observed 1230 UTC 08 December 2018
Temperature: 31.0°C (88°F)
Dewpoint: 25.0°C (77°F) [RH = 71%]
Pressure (altimeter): 29.88 inches Hg (1012.0 mb)
Winds: from the SW (230 degrees) at 8 MPH (7 knots; 3.6 m/s)
Visibility: 5 miles ( 8 km)
Ceiling: at least 12,000 feet AGL
Clouds: scattered clouds at 1200 feet AGL
Weather: no significant weather observed at this time

METAR text: DIAP 081200Z 23008KT 200V260 8000 SCT012 31/24 Q1013 NOSIG
Conditions at: DIAP (ABIDJAN/PORT BOU, CI) observed 1200 UTC 08 December 2018
Temperature: 31.0°C (88°F)
Dewpoint: 24.0°C (75°F) [RH = 66%]
Pressure (altimeter): 29.91 inches Hg (1013.0 mb)
Winds: from the SW (230 degrees) at 9 MPH (8 knots; 4.1 m/s)
Visibility: 5 miles ( 8 km)
Ceiling: at least 12,000 feet AGL
Clouds: scattered clouds at 1200 feet AGL
Weather: no significant weather observed at this time

METAR text: DIAP 081130Z 25004KT 180V330 8000 SCT012 31/25 Q1013 NOSIG
Conditions at: DIAP (ABIDJAN/PORT BOU, CI) observed 1130 UTC 08 December 2018
Temperature: 31.0°C (88°F)
Dewpoint: 25.0°C (77°F) [RH = 71%]
Pressure (altimeter): 29.91 inches Hg (1013.0 mb)
Winds: from the WSW (250 degrees) at 5 MPH (4 knots; 2.1 m/s)
Visibility: 5 miles ( 8 km)
Ceiling: at least 12,000 feet AGL
Clouds: scattered clouds at 1200 feet AGL
Weather: no significant weather observed at this time

METAR text: DIAP 081100Z 26004KT 220V310 7000 SCT012 31/24 Q1013 NOSIG
Conditions at: DIAP (ABIDJAN/PORT BOU, CI) observed 1100 UTC 08 December 2018
Temperature: 31.0°C (88°F)
Dewpoint: 24.0°C (75°F) [RH = 66%]
Pressure (altimeter): 29.91 inches Hg (1013.0 mb)
Winds: from the W (260 degrees) at 5 MPH (4 knots; 2.1 m/s)
Visibility: 4 miles ( 7 km)
Ceiling: at least 12,000 feet AGL
Clouds: scattered clouds at 1200 feet AGL
Weather: no significant weather observed at this time

METAR text: DIAP 081030Z 25004KT 230V290 7000 SCT012 30/25 Q1014 NOSIG
Conditions at: DIAP (ABIDJAN/PORT BOU, CI) observed 1030 UTC 08 December 2018
Temperature: 30.0°C (86°F)
Dewpoint: 25.0°C (77°F) [RH = 75%]
Pressure (altimeter): 29.94 inches Hg (1014.0 mb)
Winds: from the WSW (250 degrees) at 5 MPH (4 knots; 2.1 m/s)
Visibility: 4 miles ( 7 km)
Ceiling: at least 12,000 feet AGL
Clouds: scattered clouds at 1200 feet AGL
Weather: no significant weather observed at this time

METAR text: DIAP 081000Z 29004KT 250V330 7000 SCT012 30/25 Q1014 NOSIG
Conditions at: DIAP (ABIDJAN/PORT BOU, CI) observed 1000 UTC 08 December 2018
Temperature: 30.0°C (86°F)
Dewpoint: 25.0°C (77°F) [RH = 75%]
Pressure (altimeter): 29.94 inches Hg (1014.0 mb)
Winds: from the WNW (290 degrees) at 5 MPH (4 knots; 2.1 m/s)
Visibility: 4 miles ( 7 km)
Ceiling: at least 12,000 feet AGL
Clouds: scattered clouds at 1200 feet AGL
Weather: no significant weather observed at this time

METAR text: DIAP 080930Z 33004KT 300V010 7000 SCT012 30/26 Q1014 NOSIG
Conditions at: DIAP (ABIDJAN/PORT BOU, CI) observed 0930 UTC 08 December 2018
Temperature: 30.0°C (86°F)
Dewpoint: 26.0°C (79°F) [RH = 79%]
Pressure (altimeter): 29.94 inches Hg (1014.0 mb)
Winds: from the NNW (330 degrees) at 5 MPH (4 knots; 2.1 m/s)
Visibility: 4 miles ( 7 km)
Ceiling: at least 12,000 feet AGL
Clouds: scattered clouds at 1200 feet AGL
Weather: no significant weather observed at this time

METAR text: DIAP 080900Z 35004KT 310V020 7000 FEW015 29/26 Q1014 NOSIG
Conditions at: DIAP (ABIDJAN/PORT BOU, CI) observed 0900 UTC 08 December 2018
Temperature: 29.0°C (84°F)
Dewpoint: 26.0°C (79°F) [RH = 84%]
Pressure (altimeter): 29.94 inches Hg (1014.0 mb)
Winds: from the N (350 degrees) at 5 MPH (4 knots; 2.1 m/s)
Visibility: 4 miles ( 7 km)
Ceiling: at least 12,000 feet AGL
Clouds: few clouds at 1500 feet AGL
Weather: no significant weather observed at this time

METAR text: DIAP 080830Z VRB03KT 7000 FEW015 28/26 Q1014 NOSIG
Conditions at: DIAP (ABIDJAN/PORT BOU, CI) observed 0830 UTC 08 December 2018
Temperature: 28.0°C (82°F)
Dewpoint: 26.0°C (79°F) [RH = 89%]
Pressure (altimeter): 29.94 inches Hg (1014.0 mb)
Winds: variable direction winds at 3 MPH (3 knots; 1.5 m/s)
Visibility: 4 miles ( 7 km)
Ceiling: at least 12,000 feet AGL
Clouds: few clouds at 1500 feet AGL
Weather: no significant weather observed at this time

Forecast for: DIAP (ABIDJAN/PORT BOU, CI)
Text: TAF DIAP 091700Z 0918/1024 22006KT 8000 SCT012
Forecast period: 1800 UTC 09 December 2018 to 0000 UTC 11 December 2018
Forecast type: FROM: standard forecast or significant change
Winds: from the SW (220 degrees) at 7 MPH (6 knots; 3.1 m/s)
Visibility: 5 miles (8 km)
Ceiling: at least 12,000 feet AGL
Clouds: scattered clouds at 1200 feet AGL
Weather: no significant weather forecast for this period
Text: TEMPO 1005/1008 3000 BR
Forecast period: 0500 to 0800 UTC 10 December 2018
Forecast type: TEMPORARY: The following changes expected for less than half the time period
Visibility: 1.86 miles (2.99 km)
Ceiling: unknown
Clouds: missing
Weather: BR  (mist)
Text: PROB30
Forecast period: 1500 to 2000 UTC 10 December 2018
Forecast type: TEMPORARY: The following changes expected for less than half the time period
Visibility: missing
Ceiling: 1200 feet AGL
Clouds: broken clouds at 1200 feet AGL
few clouds at 2000 feet AGL
Weather: no significant weather forecast for this period